Terminal Aerodrome Forecast
Issued by NWS Cleveland, OH

Home | Current Version | Previous Version | Graphics & Text | Print | Product List | Glossary Off
Versions: 1 2 3 4 5 6 7 8 9 10 11 12 13 14 15 16 17 18

000
FTUS41 KCLE 260500
TAFCAK
TAF
KCAK 260520Z 2606/2706 04008KT P6SM OVC120
     FM261200 02008KT P6SM SCT250
     FM261500 01011KT P6SM SCT045
     FM270000 35009KT P6SM SCT050 BKN120
     FM270200 33004KT P6SM BKN050=

USA.gov is the U.S. government's official web portal to all federal, state and local government web resources and services.